Old London, Texas
Current Conditions -  °F | °C
As of 5:15 PM on Tuesday 25 Nov 2014 (Local Time) from KRFI Reporting Station
Clear Clear  
Wind Chill: 12°   Ceiling: Unl
Heat Index: 12°   Visibility: 10mi
Dew Point:   Wind: 3mph
Humidity: 44%   Direction: 220°SW
Pressure: 30.18"   Gusts: NA
Location:  32.2538°N, 94.9427°W
Report Text: KRFI 252315Z AUTO 22003KT 10SM CLR 12/00 A3018 RMK AO2 T01240004
Loading
Personal Weather Stations






























Interactive Weather Map New forecast layout! Learn more

10-Day Weather Forecast

Advertisements
Track Severe Weather on mobile